createdAt,value
2018-03-31T00:01:16.809Z,8.00
2018-03-31T00:03:49.129Z,8.00
2018-03-31T00:06:21.494Z,8.00
2018-03-31T00:08:53.798Z,8.00
2018-03-31T00:11:26.256Z,8.00
2018-03-31T00:13:58.505Z,8.00
2018-03-31T00:16:30.649Z,8.00
2018-03-31T00:19:02.999Z,8.00
2018-03-31T00:21:35.890Z,8.10
2018-03-31T00:24:09.101Z,8.00
2018-03-31T00:26:41.264Z,8.00
2018-03-31T00:29:13.475Z,8.10
2018-03-31T00:31:45.853Z,8.10
2018-03-31T00:34:18.555Z,8.00
2018-03-31T00:36:50.845Z,8.00
2018-03-31T00:39:22.979Z,8.00
2018-03-31T00:41:55.340Z,8.00
2018-03-31T00:44:27.776Z,7.90
2018-03-31T00:47:00.068Z,7.80
2018-03-31T00:49:32.558Z,7.80
2018-03-31T00:52:04.794Z,7.80
2018-03-31T00:54:37.089Z,7.80
2018-03-31T00:57:09.706Z,7.80
2018-03-31T00:59:42.893Z,7.70
2018-03-31T01:02:15.940Z,7.70
2018-03-31T01:04:48.285Z,7.70
2018-03-31T01:07:20.629Z,7.70
2018-03-31T01:09:52.995Z,7.70
2018-03-31T01:12:25.214Z,7.70
2018-03-31T01:14:58.096Z,7.70
2018-03-31T01:17:30.679Z,7.70
2018-03-31T01:20:02.884Z,7.70
2018-03-31T01:22:35.240Z,7.70
2018-03-31T01:25:07.422Z,7.60
2018-03-31T01:27:39.700Z,7.60
2018-03-31T01:30:11.814Z,7.60
2018-03-31T01:32:44.036Z,7.60
2018-03-31T01:35:16.205Z,7.60
2018-03-31T01:37:48.438Z,7.60
2018-03-31T01:40:20.988Z,7.50
2018-03-31T01:42:53.952Z,7.50
2018-03-31T01:45:26.176Z,7.50
2018-03-31T01:47:58.689Z,7.60
2018-03-31T01:50:31.740Z,7.60
2018-03-31T01:53:04.021Z,7.60
2018-03-31T01:55:37.145Z,7.60
2018-03-31T01:58:10.263Z,7.60
2018-03-31T02:00:43.432Z,7.60
2018-03-31T02:03:15.638Z,7.50
2018-03-31T02:05:47.769Z,7.50
2018-03-31T02:08:20.859Z,7.50
2018-03-31T02:10:53.115Z,7.40
2018-03-31T02:13:26.159Z,7.40
2018-03-31T02:15:58.364Z,7.40
2018-03-31T02:18:31.379Z,7.50
2018-03-31T02:21:03.615Z,7.40
2018-03-31T02:23:36.040Z,7.40
2018-03-31T02:26:08.279Z,7.40
2018-03-31T02:28:40.596Z,7.40
2018-03-31T02:31:13.021Z,7.40
2018-03-31T02:33:45.289Z,7.50
2018-03-31T02:36:17.416Z,7.50
2018-03-31T02:38:49.736Z,7.50
2018-03-31T02:41:22.696Z,7.50
2018-03-31T02:43:55.490Z,7.50
2018-03-31T02:46:27.855Z,7.50
2018-03-31T02:49:00.010Z,7.40
2018-03-31T02:51:32.376Z,7.40
2018-03-31T02:54:04.550Z,7.40
2018-03-31T02:56:36.735Z,7.40
2018-03-31T02:59:09.089Z,7.50
2018-03-31T03:01:41.516Z,7.50
2018-03-31T03:04:14.332Z,7.40
2018-03-31T03:06:46.572Z,7.40
2018-03-31T03:09:19.071Z,7.40
2018-03-31T03:11:51.501Z,7.40
2018-03-31T03:14:23.836Z,7.30
2018-03-31T03:16:56.026Z,7.20
2018-03-31T03:19:28.164Z,7.20
2018-03-31T03:22:00.609Z,7.10
2018-03-31T03:24:33.091Z,7.00
2018-03-31T03:27:05.251Z,7.00
2018-03-31T03:29:38.205Z,6.90
2018-03-31T03:32:10.401Z,6.90
2018-03-31T03:34:43.517Z,6.80
2018-03-31T03:37:15.739Z,6.80
2018-03-31T03:39:47.894Z,6.80
2018-03-31T03:42:20.976Z,6.70
2018-03-31T03:44:53.192Z,6.70
2018-03-31T03:47:25.391Z,6.60
2018-03-31T03:49:57.544Z,6.60
2018-03-31T03:52:29.727Z,6.50
2018-03-31T03:55:02.020Z,6.60
2018-03-31T03:57:34.210Z,6.60
2018-03-31T04:00:07.320Z,6.60
2018-03-31T04:02:40.283Z,6.60
2018-03-31T04:05:13.329Z,6.50
2018-03-31T04:07:45.549Z,6.50
2018-03-31T04:10:17.909Z,6.50
2018-03-31T04:12:51.097Z,6.40
2018-03-31T04:15:24.046Z,6.40
2018-03-31T04:17:56.424Z,6.40
2018-03-31T04:20:29.301Z,6.50
2018-03-31T04:23:01.668Z,6.50
2018-03-31T04:25:34.221Z,6.40
2018-03-31T04:28:06.460Z,6.50
2018-03-31T04:30:38.745Z,6.40
2018-03-31T04:33:11.204Z,6.40
2018-03-31T04:35:44.274Z,6.40
2018-03-31T04:38:16.567Z,6.40
2018-03-31T04:40:48.986Z,6.40
2018-03-31T04:43:21.315Z,6.50
2018-03-31T04:45:53.448Z,6.50
2018-03-31T04:48:25.674Z,6.50
2018-03-31T04:50:58.110Z,6.50
2018-03-31T04:53:30.595Z,6.50
2018-03-31T04:56:08.837Z,6.60
2018-03-31T04:58:40.992Z,6.60
2018-03-31T05:01:13.437Z,6.60
2018-03-31T05:03:46.455Z,6.70
2018-03-31T05:06:18.864Z,6.70
2018-03-31T05:08:51.053Z,6.70
2018-03-31T05:11:23.457Z,6.60
2018-03-31T05:13:56.611Z,6.70
2018-03-31T05:16:29.010Z,6.70
2018-03-31T05:19:01.231Z,6.70
2018-03-31T05:21:33.411Z,6.70
2018-03-31T05:24:06.536Z,6.70
2018-03-31T05:26:38.781Z,6.70
2018-03-31T05:29:11.845Z,6.70
2018-03-31T05:31:44.132Z,6.70
2018-03-31T05:34:17.320Z,6.70
2018-03-31T05:36:49.542Z,6.70
2018-03-31T05:39:22.967Z,6.80
2018-03-31T05:41:55.387Z,6.80
2018-03-31T05:44:27.705Z,6.80
2018-03-31T05:46:59.841Z,6.90
2018-03-31T05:49:31.990Z,6.90
2018-03-31T05:52:04.170Z,6.90
2018-03-31T05:54:36.501Z,7.00
2018-03-31T05:57:08.729Z,7.00
2018-03-31T05:59:41.266Z,7.10
2018-03-31T06:02:13.427Z,7.10
2018-03-31T06:04:45.634Z,7.10
2018-03-31T06:07:17.971Z,7.10
2018-03-31T06:09:50.671Z,7.10
2018-03-31T06:12:23.771Z,7.20
2018-03-31T06:14:56.275Z,7.20
2018-03-31T06:17:29.146Z,7.20
2018-03-31T06:20:01.352Z,7.30
2018-03-31T06:22:34.497Z,7.30
2018-03-31T06:25:06.739Z,7.30
2018-03-31T06:27:38.981Z,7.40
2018-03-31T06:30:11.200Z,7.40
2018-03-31T06:32:43.442Z,7.40
2018-03-31T06:35:15.722Z,7.40
2018-03-31T06:37:48.160Z,7.50
2018-03-31T06:40:20.566Z,7.60
2018-03-31T06:42:52.785Z,7.70
2018-03-31T06:45:24.912Z,7.70
2018-03-31T06:47:57.208Z,7.70
2018-03-31T06:50:30.125Z,7.70
2018-03-31T06:53:02.292Z,7.80
2018-03-31T06:55:35.202Z,7.80
2018-03-31T06:58:07.573Z,7.80
2018-03-31T07:00:39.796Z,7.90
2018-03-31T07:03:12.261Z,7.90
2018-03-31T07:05:44.782Z,7.90
2018-03-31T07:08:17.092Z,8.00
2018-03-31T07:10:49.277Z,8.00
2018-03-31T07:13:21.510Z,8.00
2018-03-31T07:15:53.716Z,8.10
2018-03-31T07:18:26.201Z,8.10
2018-03-31T07:20:58.593Z,8.20
2018-03-31T07:23:31.117Z,8.30
2018-03-31T07:26:03.342Z,8.40
2018-03-31T07:28:35.547Z,8.50
2018-03-31T07:31:07.737Z,8.60
2018-03-31T07:33:39.873Z,8.60
2018-03-31T07:36:12.162Z,8.70
2018-03-31T07:38:44.515Z,8.70
2018-03-31T07:41:17.020Z,8.60
2018-03-31T07:43:49.456Z,8.70
2018-03-31T07:46:21.801Z,8.80
2018-03-31T07:48:54.010Z,8.80
2018-03-31T07:51:26.340Z,8.90
2018-03-31T07:53:59.262Z,9.00
2018-03-31T07:56:31.654Z,9.00
2018-03-31T07:59:04.696Z,9.10
2018-03-31T08:01:37.056Z,9.10
2018-03-31T08:04:09.354Z,9.10
2018-03-31T08:06:42.376Z,9.20
2018-03-31T08:09:14.716Z,9.20
2018-03-31T08:11:46.892Z,9.30
2018-03-31T08:14:19.703Z,9.20
2018-03-31T08:16:51.962Z,9.30
2018-03-31T08:19:24.325Z,9.30
2018-03-31T08:21:56.488Z,9.30
2018-03-31T08:24:28.672Z,9.30
2018-03-31T08:27:00.926Z,9.40
2018-03-31T08:29:33.541Z,9.30
2018-03-31T08:32:05.737Z,9.20
2018-03-31T08:34:38.087Z,9.20
2018-03-31T08:37:10.438Z,9.40
2018-03-31T08:39:42.633Z,9.50
2018-03-31T08:42:14.911Z,9.60
2018-03-31T08:44:47.398Z,9.70
2018-03-31T08:47:20.115Z,9.60
2018-03-31T08:49:52.565Z,9.60
2018-03-31T08:52:24.968Z,9.60
2018-03-31T08:54:57.192Z,9.60
2018-03-31T08:57:30.287Z,9.80
2018-03-31T09:00:02.453Z,9.80
2018-03-31T09:02:34.592Z,10.00
2018-03-31T09:05:06.792Z,10.10
2018-03-31T09:07:39.173Z,9.90
2018-03-31T09:10:11.359Z,10.00
2018-03-31T09:12:43.702Z,10.00
2018-03-31T09:15:16.139Z,10.10
2018-03-31T09:17:48.431Z,10.20
2018-03-31T09:20:20.672Z,10.20
2018-03-31T09:22:52.841Z,10.30
2018-03-31T09:25:26.033Z,10.20
2018-03-31T09:27:58.221Z,10.20
2018-03-31T09:30:30.518Z,10.20
2018-03-31T09:33:02.707Z,10.40
2018-03-31T09:35:35.053Z,10.50
2018-03-31T09:38:07.596Z,10.60
2018-03-31T09:40:39.773Z,10.50
2018-03-31T09:43:12.848Z,10.80
2018-03-31T09:45:45.162Z,10.80
2018-03-31T09:48:17.506Z,11.10
2018-03-31T09:50:49.892Z,11.50
2018-03-31T09:53:23.173Z,11.40
2018-03-31T09:55:55.497Z,11.40
2018-03-31T09:58:27.868Z,11.40
2018-03-31T10:01:03.160Z,11.10
2018-03-31T10:03:35.395Z,11.20
2018-03-31T10:06:07.955Z,11.20
2018-03-31T10:08:40.271Z,11.20
2018-03-31T10:11:13.248Z,11.40
2018-03-31T10:13:45.603Z,11.30
2018-03-31T10:16:17.722Z,11.50
2018-03-31T10:18:49.933Z,11.70
2018-03-31T10:21:22.835Z,12.30
2018-03-31T10:23:55.239Z,12.20
2018-03-31T10:26:27.636Z,12.30
2018-03-31T10:28:59.849Z,12.50
2018-03-31T10:31:32.338Z,12.50
2018-03-31T10:34:05.482Z,12.10
2018-03-31T10:36:37.696Z,12.10
2018-03-31T10:39:10.017Z,12.10
2018-03-31T10:41:43.029Z,11.70
2018-03-31T10:44:15.145Z,11.70
2018-03-31T10:46:47.335Z,11.70
2018-03-31T10:49:19.693Z,11.70
2018-03-31T10:51:52.810Z,12.00
2018-03-31T10:54:26.733Z,12.20
2018-03-31T10:56:59.052Z,12.20
2018-03-31T10:59:31.600Z,12.30
2018-03-31T11:02:04.828Z,12.60
2018-03-31T11:04:37.188Z,12.60
2018-03-31T11:07:09.513Z,12.60
2018-03-31T11:09:41.912Z,12.70
2018-03-31T11:12:14.041Z,12.60
2018-03-31T11:14:46.212Z,12.80
2018-03-31T11:17:18.597Z,12.90
2018-03-31T11:19:50.951Z,13.20
2018-03-31T11:22:23.336Z,13.30
2018-03-31T11:24:55.742Z,13.40
2018-03-31T11:27:28.082Z,13.40
2018-03-31T11:30:01.064Z,13.50
2018-03-31T11:32:33.472Z,13.50
2018-03-31T11:35:05.747Z,13.30
2018-03-31T11:37:38.178Z,13.30
2018-03-31T11:40:10.602Z,13.40
2018-03-31T11:42:43.168Z,13.30
2018-03-31T11:45:16.359Z,13.20
2018-03-31T11:47:48.599Z,13.20
2018-03-31T11:50:20.963Z,13.20
2018-03-31T11:52:54.011Z,13.40
2018-03-31T11:55:26.179Z,13.40
2018-03-31T11:57:59.299Z,12.80
2018-03-31T12:00:31.604Z,12.80
2018-03-31T12:03:03.928Z,12.50
2018-03-31T12:05:36.341Z,12.10
2018-03-31T12:08:08.726Z,11.90
2018-03-31T12:10:40.957Z,11.90
2018-03-31T12:13:13.930Z,11.80
2018-03-31T12:15:46.127Z,11.90
2018-03-31T12:18:18.247Z,11.90
2018-03-31T12:20:50.411Z,11.90
2018-03-31T12:23:22.873Z,12.00
2018-03-31T12:25:55.908Z,11.70
2018-03-31T12:28:28.876Z,11.60
2018-03-31T12:31:01.949Z,11.70
2018-03-31T12:33:34.190Z,11.60
2018-03-31T12:36:06.593Z,11.50
2018-03-31T12:38:39.619Z,11.70
2018-03-31T12:41:12.021Z,11.70
2018-03-31T12:43:44.322Z,11.80
2018-03-31T12:46:16.685Z,11.80
2018-03-31T12:48:49.032Z,11.90
2018-03-31T12:51:21.318Z,11.80
2018-03-31T12:53:53.609Z,12.00
2018-03-31T12:56:26.092Z,12.30
2018-03-31T12:58:58.399Z,12.60
2018-03-31T13:01:30.650Z,12.90
2018-03-31T13:04:03.079Z,13.20
2018-03-31T13:06:35.675Z,13.50
2018-03-31T13:09:08.033Z,14.00
2018-03-31T13:11:40.139Z,14.20
2018-03-31T13:14:12.571Z,14.50
2018-03-31T13:16:45.028Z,14.70
2018-03-31T13:19:17.488Z,14.90
2018-03-31T13:21:49.833Z,14.80
2018-03-31T13:24:22.111Z,14.40
2018-03-31T13:26:56.180Z,13.80
2018-03-31T13:29:28.419Z,13.80
2018-03-31T13:32:00.752Z,13.70
2018-03-31T13:34:33.135Z,13.60
2018-03-31T13:37:05.520Z,13.50
2018-03-31T13:39:38.677Z,13.50
2018-03-31T13:42:10.904Z,13.50
2018-03-31T13:44:44.157Z,13.40
2018-03-31T13:47:17.168Z,13.50
2018-03-31T13:49:49.364Z,13.50
2018-03-31T13:52:21.712Z,13.50
2018-03-31T13:54:54.241Z,13.50
2018-03-31T13:57:28.496Z,13.80
2018-03-31T14:00:00.848Z,13.80
2018-03-31T14:02:33.892Z,13.90
2018-03-31T14:05:06.174Z,14.00
2018-03-31T14:07:38.475Z,14.10
2018-03-31T14:10:10.673Z,14.10
2018-03-31T14:12:43.052Z,14.00
2018-03-31T14:15:15.353Z,13.60
2018-03-31T14:17:47.684Z,13.40
2018-03-31T14:20:20.713Z,13.40
2018-03-31T14:22:52.992Z,13.30
2018-03-31T14:25:25.428Z,13.20
2018-03-31T14:27:58.146Z,13.00
2018-03-31T14:30:31.044Z,12.90
2018-03-31T14:33:03.572Z,12.80
2018-03-31T14:35:35.850Z,12.60
2018-03-31T14:38:09.848Z,12.30
2018-03-31T14:40:42.907Z,12.10
2018-03-31T14:43:16.014Z,12.00
2018-03-31T14:45:49.150Z,12.00
2018-03-31T14:48:22.255Z,12.00
2018-03-31T14:50:54.724Z,12.00
2018-03-31T14:53:27.992Z,11.90
2018-03-31T14:56:00.132Z,11.90
2018-03-31T14:58:32.628Z,12.00
2018-03-31T15:01:05.040Z,12.00
2018-03-31T15:03:38.024Z,11.80
2018-03-31T15:06:10.265Z,11.80
2018-03-31T15:08:42.659Z,11.70
2018-03-31T15:11:15.955Z,11.50
2018-03-31T15:13:49.060Z,11.30
2018-03-31T15:16:22.176Z,11.30
2018-03-31T15:18:54.966Z,11.10
2018-03-31T15:21:28.037Z,11.10
2018-03-31T15:24:01.042Z,11.40
2018-03-31T15:26:34.197Z,12.00
2018-03-31T15:29:08.244Z,11.80
2018-03-31T15:31:41.318Z,11.80
2018-03-31T15:34:13.600Z,11.60
2018-03-31T15:36:45.820Z,11.40
2018-03-31T15:39:18.888Z,11.20
2018-03-31T15:41:51.210Z,11.00
2018-03-31T15:44:23.694Z,10.80
2018-03-31T15:46:56.180Z,10.80
2018-03-31T15:49:29.428Z,10.70
2018-03-31T15:52:02.555Z,10.70
2018-03-31T15:54:34.829Z,10.70
2018-03-31T15:57:07.118Z,10.70
2018-03-31T15:59:39.470Z,10.60
2018-03-31T16:02:12.732Z,10.50
2018-03-31T16:04:45.073Z,10.40
2018-03-31T16:07:17.418Z,10.40
2018-03-31T16:09:49.798Z,10.30
2018-03-31T16:12:22.109Z,10.30
2018-03-31T16:14:54.547Z,10.30
2018-03-31T16:17:26.883Z,10.30
2018-03-31T16:20:00.123Z,10.20
2018-03-31T16:22:32.410Z,10.20
2018-03-31T16:25:04.583Z,10.20
2018-03-31T16:27:37.165Z,10.20
2018-03-31T16:30:09.529Z,10.30
2018-03-31T16:32:41.945Z,10.30
2018-03-31T16:35:14.356Z,10.20
2018-03-31T16:37:47.533Z,10.30
2018-03-31T16:40:19.954Z,10.20
2018-03-31T16:42:52.368Z,10.20
2018-03-31T16:45:24.826Z,10.10
2018-03-31T16:47:57.052Z,10.00
2018-03-31T16:50:29.535Z,9.80
2018-03-31T16:53:02.561Z,9.50
2018-03-31T16:55:35.778Z,9.40
2018-03-31T16:58:08.232Z,9.40
2018-03-31T17:00:40.342Z,9.30
2018-03-31T17:03:12.505Z,9.30
2018-03-31T17:05:45.566Z,9.20
2018-03-31T17:08:17.866Z,9.20
2018-03-31T17:10:50.222Z,9.20
2018-03-31T17:13:22.714Z,9.10
2018-03-31T17:15:55.975Z,8.90
2018-03-31T17:18:29.103Z,8.80
2018-03-31T17:21:02.252Z,8.70
2018-03-31T17:23:34.634Z,8.70
2018-03-31T17:26:06.992Z,8.60
2018-03-31T17:28:40.853Z,8.50
2018-03-31T17:31:13.878Z,8.40
2018-03-31T17:33:46.093Z,8.40
2018-03-31T17:36:18.492Z,8.20
2018-03-31T17:38:50.795Z,8.10
2018-03-31T17:41:23.835Z,8.00
2018-03-31T17:43:56.005Z,8.00
2018-03-31T17:46:28.140Z,8.00
2018-03-31T17:49:00.373Z,7.80
2018-03-31T17:51:33.520Z,7.70
2018-03-31T17:54:05.890Z,7.70
2018-03-31T17:56:38.941Z,7.60
2018-03-31T17:59:11.484Z,7.60
2018-03-31T18:01:43.627Z,7.60
2018-03-31T18:04:16.679Z,7.60
2018-03-31T18:06:49.877Z,7.40
2018-03-31T18:09:22.915Z,7.40
2018-03-31T18:11:55.950Z,7.40
2018-03-31T18:14:29.139Z,7.40
2018-03-31T18:17:02.271Z,7.30
2018-03-31T18:19:34.630Z,7.30
2018-03-31T18:22:07.647Z,7.20
2018-03-31T18:24:39.925Z,7.20
2018-03-31T18:27:12.132Z,7.20
2018-03-31T18:29:44.375Z,7.20
2018-03-31T18:32:16.968Z,7.20
2018-03-31T18:34:49.283Z,7.10
2018-03-31T18:37:21.588Z,7.10
2018-03-31T18:39:54.950Z,7.00
2018-03-31T18:42:27.514Z,7.00
2018-03-31T18:44:59.768Z,7.00
2018-03-31T18:47:32.202Z,7.00
2018-03-31T18:50:04.516Z,6.90
2018-03-31T18:52:37.007Z,6.80
2018-03-31T18:55:09.383Z,6.80
2018-03-31T18:57:42.093Z,6.80
2018-03-31T19:00:14.473Z,6.80
2018-03-31T19:02:48.060Z,6.70
2018-03-31T19:05:20.201Z,6.70
2018-03-31T19:07:52.562Z,6.70
2018-03-31T19:10:25.050Z,6.60
2018-03-31T19:12:57.723Z,6.60
2018-03-31T19:15:30.287Z,6.50
2018-03-31T19:18:03.223Z,6.50
2018-03-31T19:20:35.748Z,6.50
2018-03-31T19:23:08.047Z,6.40
2018-03-31T19:25:40.478Z,6.40
2018-03-31T19:28:12.789Z,6.40
2018-03-31T19:30:49.956Z,6.30
2018-03-31T19:33:23.093Z,6.30
2018-03-31T19:36:02.301Z,6.30
2018-03-31T19:38:34.505Z,6.20
2018-03-31T19:41:06.795Z,6.20
2018-03-31T19:43:39.234Z,6.20
2018-03-31T19:46:11.759Z,6.20
2018-03-31T19:48:44.034Z,6.10
2018-03-31T19:51:17.393Z,6.10
2018-03-31T19:53:50.520Z,6.10
2018-03-31T19:56:22.865Z,6.10
2018-03-31T19:58:55.351Z,6.10
2018-03-31T20:01:28.466Z,6.10
2018-03-31T20:04:00.874Z,6.10
2018-03-31T20:06:33.175Z,6.10
2018-03-31T20:09:05.554Z,6.00
2018-03-31T20:11:38.011Z,6.00
2018-03-31T20:14:10.424Z,6.00
2018-03-31T20:16:42.814Z,6.00
2018-03-31T20:19:16.680Z,6.10
2018-03-31T20:21:49.852Z,6.10
2018-03-31T20:24:22.831Z,6.10
2018-03-31T20:26:55.188Z,6.00
2018-03-31T20:29:28.262Z,6.10
2018-03-31T20:32:01.485Z,6.10
2018-03-31T20:34:33.704Z,6.10
2018-03-31T20:37:06.095Z,6.10
2018-03-31T20:39:38.533Z,6.10
2018-03-31T20:42:10.913Z,6.10
2018-03-31T20:44:43.941Z,6.00
2018-03-31T20:47:17.029Z,6.00
2018-03-31T20:49:50.249Z,5.90
2018-03-31T20:52:22.573Z,5.90
2018-03-31T20:54:54.968Z,5.90
2018-03-31T20:57:27.551Z,5.90
2018-03-31T20:59:59.846Z,5.90
2018-03-31T21:02:32.941Z,5.90
2018-03-31T21:05:06.145Z,5.90
2018-03-31T21:07:38.369Z,5.90
2018-03-31T21:10:11.413Z,6.00
2018-03-31T21:12:43.621Z,5.90
2018-03-31T21:15:16.646Z,6.00
2018-03-31T21:17:48.794Z,5.90
2018-03-31T21:20:21.200Z,5.90
2018-03-31T21:22:53.550Z,5.90
2018-03-31T21:25:25.710Z,5.80
2018-03-31T21:27:59.328Z,5.70
2018-03-31T21:30:31.585Z,5.70
2018-03-31T21:33:05.527Z,5.50
2018-03-31T21:35:37.918Z,5.50
2018-03-31T21:38:10.262Z,5.50
2018-03-31T21:40:42.399Z,5.50
2018-03-31T21:43:14.655Z,5.50
2018-03-31T21:45:47.145Z,5.50
2018-03-31T21:48:20.248Z,5.50
2018-03-31T21:50:52.533Z,5.50
2018-03-31T21:53:24.871Z,5.50
2018-03-31T21:55:58.195Z,5.50
2018-03-31T21:58:30.401Z,5.60
2018-03-31T22:01:03.735Z,5.60
2018-03-31T22:03:36.129Z,5.60
2018-03-31T22:06:08.474Z,5.50
2018-03-31T22:08:40.660Z,5.40
2018-03-31T22:11:13.785Z,5.40
2018-03-31T22:13:52.015Z,5.30
2018-03-31T22:16:24.188Z,5.30
2018-03-31T22:18:56.738Z,5.40
2018-03-31T22:21:29.104Z,5.30
2018-03-31T22:24:01.344Z,5.30
2018-03-31T22:26:33.716Z,5.20
2018-03-31T22:29:06.242Z,5.20
2018-03-31T22:31:38.496Z,5.20
2018-03-31T22:34:10.862Z,5.20
2018-03-31T22:36:43.942Z,5.10
2018-03-31T22:39:16.189Z,5.10
2018-03-31T22:41:48.345Z,5.10
2018-03-31T22:44:20.598Z,5.10
2018-03-31T22:46:52.774Z,5.10
2018-03-31T22:49:24.949Z,5.00
2018-03-31T22:51:57.994Z,4.90
2018-03-31T22:54:30.609Z,4.90
2018-03-31T22:57:02.933Z,4.90
2018-03-31T22:59:35.228Z,4.90
2018-03-31T23:02:07.445Z,4.90
2018-03-31T23:04:39.686Z,4.80
2018-03-31T23:07:12.400Z,4.80
2018-03-31T23:09:45.225Z,4.70
2018-03-31T23:12:18.481Z,4.70
2018-03-31T23:14:51.532Z,4.80
2018-03-31T23:17:23.770Z,4.70
2018-03-31T23:19:56.264Z,4.80
2018-03-31T23:22:28.545Z,4.80
2018-03-31T23:25:00.644Z,4.80
2018-03-31T23:27:33.511Z,4.80
2018-03-31T23:30:05.794Z,4.70
2018-03-31T23:32:37.910Z,4.70
2018-03-31T23:35:10.315Z,4.70
2018-03-31T23:37:42.720Z,4.70
2018-03-31T23:40:15.734Z,4.70
2018-03-31T23:42:48.658Z,4.70
2018-03-31T23:45:21.024Z,4.70
2018-03-31T23:47:54.220Z,4.70
2018-03-31T23:50:27.413Z,4.70
2018-03-31T23:53:00.671Z,4.70
2018-03-31T23:55:33.042Z,4.70
2018-03-31T23:58:05.429Z,4.70
